Time;durP1;ratioP1;P1;durP2;ratioP2;P2;SDS_P1;SDS_P2;PMS_P1;PMS_P2;Temp;Humidity;BMP_temperature;BMP_pressure;BME280_temperature;BME280_humidity;BME280_pressure;Samples;Min_cycle;Max_cycle;Signal;HPM_P1;HPM_P2
2021/11/07 00:04:28;;;;;;;9.07;4.75;;;;;;;8.21;75.29;100369.50;5109811;28;20051;-61
2021/11/07 00:07:10;;;;;;;9.00;5.03;;;;;;;8.21;75.22;100367.78;5109247;28;20118;-61
2021/11/07 00:12:11;;;;;;;8.55;4.75;;;;;;;8.21;75.20;100364.34;5110647;28;20124;-61
2021/11/07 00:14:37;;;;;;;8.60;5.28;;;;;;;8.21;75.30;100357.44;5110505;28;20027;-61
2021/11/07 00:17:03;;;;;;;10.00;4.50;;;;;;;8.22;75.50;100345.44;5109257;28;20043;-61
2021/11/07 00:19:42;;;;;;;9.48;5.00;;;;;;;8.22;75.39;100351.47;5110463;28;20173;-61
2021/11/07 00:22:14;;;;;;;8.32;4.78;;;;;;;8.21;75.63;100334.22;5110591;28;20072;-61
2021/11/07 00:24:45;;;;;;;12.60;5.30;;;;;;;8.21;75.34;100333.34;5110443;28;20048;-61
2021/11/07 00:27:25;;;;;;;9.70;5.43;;;;;;;8.22;75.45;100343.72;5110218;28;20087;-60
2021/11/07 00:38:01;;;;;;;7.53;5.22;;;;;;;8.21;75.62;100334.22;5109643;28;20480;-61
2021/11/07 00:50:46;;;;;;;9.80;5.03;;;;;;;8.21;75.71;100316.13;5095237;28;20375;-61
2021/11/07 00:53:36;;;;;;;14.75;5.47;;;;;;;8.22;75.70;100327.34;5095773;28;20036;-61
2021/11/07 00:58:40;;;;;;;11.53;5.47;;;;;;;8.19;75.77;100307.47;5095137;28;20032;-61
2021/11/07 01:03:34;;;;;;;8.43;5.65;;;;;;;8.21;75.85;100307.53;5094710;28;20035;-61
2021/11/07 01:06:00;;;;;;;9.63;5.88;;;;;;;8.19;75.75;100309.19;5094623;28;20043;-61
2021/11/07 01:08:26;;;;;;;16.90;6.97;;;;;;;8.18;75.91;100312.59;5095924;28;20111;-61
2021/11/07 01:10:58;;;;;;;14.82;6.25;;;;;;;8.19;75.90;100314.34;5095763;28;20101;-61
2021/11/07 01:13:25;;;;;;;9.10;6.43;;;;;;;8.19;75.94;100304.03;5094645;28;20047;-61
2021/11/07 01:15:51;;;;;;;8.50;5.07;;;;;;;8.17;76.09;100298.81;5128367;27;20036;-62
2021/11/07 01:18:17;;;;;;;10.68;5.95;;;;;;;8.18;76.03;100295.38;5094359;28;20501;-61
2021/11/07 01:20:43;;;;;;;9.10;5.57;;;;;;;8.18;75.83;100295.38;5095731;28;20047;-61
2021/11/07 01:23:32;;;;;;;9.93;5.80;;;;;;;8.19;75.96;100293.69;5094095;28;20036;-62
2021/11/07 01:26:09;;;;;;;8.82;5.45;;;;;;;8.19;76.08;100285.94;5094459;28;20059;-61
2021/11/07 01:28:44;;;;;;;7.28;5.25;;;;;;;8.19;75.90;100298.84;5094957;28;20044;-61
2021/11/07 01:31:10;;;;;;;10.70;5.18;;;;;;;8.18;75.98;100303.13;5095401;28;20123;-61
2021/11/07 01:33:35;;;;;;;12.82;7.50;;;;;;;8.19;76.03;100298.84;5077757;28;20463;-61
2021/11/07 01:38:48;;;;;;;9.13;6.43;;;;;;;8.18;76.36;100287.63;5094269;28;20050;-61
2021/11/07 01:43:40;;;;;;;7.50;5.95;;;;;;;8.18;76.21;100279.88;5095596;28;20196;-61
2021/11/07 01:48:39;;;;;;;10.48;6.63;;;;;;;8.18;76.48;100286.78;5095036;28;20040;-61
2021/11/07 01:51:05;;;;;;;7.70;5.57;;;;;;;8.17;76.42;100269.53;5093016;28;20503;-61
2021/11/07 01:53:33;;;;;;;7.97;5.72;;;;;;;8.17;76.23;100272.13;5093738;28;20063;-60
2021/11/07 01:56:03;;;;;;;14.10;6.18;;;;;;;8.17;76.38;100267.84;5093822;28;20035;-61
2021/11/07 01:58:32;;;;;;;8.95;6.10;;;;;;;8.18;76.49;100276.44;5093956;28;20036;-61
2021/11/07 02:00:58;;;;;;;9.55;6.15;;;;;;;8.19;76.46;100257.53;5093962;28;20032;-61
2021/11/07 02:03:24;;;;;;;6.57;5.45;;;;;;;8.18;76.62;100250.63;5094959;28;20070;-61
2021/11/07 02:05:51;;;;;;;7.55;5.57;;;;;;;8.19;76.62;100234.31;5094827;28;20114;-61
2021/11/07 02:08:21;;;;;;;11.05;5.53;;;;;;;8.20;76.62;100241.22;5094127;28;20036;-61
2021/11/07 02:10:49;;;;;;;7.55;6.40;;;;;;;8.19;76.72;100242.91;5093785;28;20036;-60
2021/11/07 02:13:17;;;;;;;9.95;4.60;;;;;;;8.20;76.70;100242.09;5094698;28;20126;-61
2021/11/07 02:15:44;;;;;;;6.85;5.57;;;;;;;8.20;76.68;100224.00;5094495;28;20066;-61
2021/11/07 02:18:11;;;;;;;7.60;5.07;;;;;;;8.19;77.08;100208.50;5094409;28;20040;-62
2021/11/07 02:20:41;;;;;;;7.07;5.57;;;;;;;8.20;77.02;100224.00;5093394;28;20036;-61
2021/11/07 02:23:10;;;;;;;9.00;5.80;;;;;;;8.20;76.73;100225.72;5094558;28;20088;-61
2021/11/07 02:25:37;;;;;;;6.38;5.28;;;;;;;8.19;76.92;100235.16;5094371;28;20400;-61
2021/11/07 02:28:05;;;;;;;8.45;5.25;;;;;;;8.21;76.93;100236.09;5092936;28;20043;-61
2021/11/07 02:30:31;;;;;;;10.20;6.13;;;;;;;8.22;76.86;100237.84;5093436;28;20039;-61
2021/11/07 02:32:58;;;;;;;7.78;6.47;;;;;;;8.22;76.65;100232.69;5094434;28;20035;-61
2021/11/07 02:35:26;;;;;;;6.85;5.65;;;;;;;8.22;76.92;100235.25;5093005;28;20398;-62
2021/11/07 02:37:52;;;;;;;9.95;6.50;;;;;;;8.22;76.84;100224.94;5093114;28;20043;-61
2021/11/07 02:40:18;;;;;;;7.28;5.35;;;;;;;8.22;76.99;100224.94;5094230;28;20107;-61
2021/11/07 02:42:46;;;;;;;9.32;5.68;;;;;;;8.24;76.85;100222.41;5093020;28;20074;-61
2021/11/07 02:45:15;;;;;;;7.88;5.57;;;;;;;8.23;77.24;100239.59;5092905;28;20127;-60
2021/11/07 02:47:41;;;;;;;8.13;5.50;;;;;;;8.24;76.96;100227.59;5092802;28;20050;-61
2021/11/07 02:50:10;;;;;;;10.82;5.75;;;;;;;8.26;76.97;100222.44;5092788;28;20064;-61
2021/11/07 02:52:36;;;;;;;7.82;5.55;;;;;;;8.25;76.91;100211.25;5094369;28;20043;-61
2021/11/07 02:55:02;;;;;;;7.32;6.35;;;;;;;8.25;77.06;100212.94;5093843;28;20536;-61
2021/11/07 02:57:28;;;;;;;6.28;5.32;;;;;;;8.26;76.94;100201.78;5094077;28;20182;-61
2021/11/07 02:59:57;;;;;;;8.40;6.60;;;;;;;8.26;77.04;100202.66;5092677;28;20502;-61
2021/11/07 03:02:24;;;;;;;8.70;5.85;;;;;;;8.27;77.05;100208.69;5092465;28;20130;-62
2021/11/07 03:04:49;;;;;;;7.65;4.93;;;;;;;8.27;77.13;100198.38;5093817;28;20036;-61
2021/11/07 03:07:15;;;;;;;6.05;5.22;;;;;;;8.27;77.01;100190.63;5093720;28;20119;-61
2021/11/07 03:09:41;;;;;;;5.80;5.20;;;;;;;8.27;77.19;100196.66;5092425;28;20136;-61
2021/11/07 03:12:10;;;;;;;6.28;4.80;;;;;;;8.27;77.28;100191.50;5092673;28;20055;-61
2021/11/07 03:14:42;;;;;;;5.07;4.47;;;;;;;8.27;77.17;100183.75;5093590;28;20543;-62
2021/11/07 03:17:09;;;;;;;5.38;4.57;;;;;;;8.28;77.11;100175.16;5093613;28;20040;-61
2021/11/07 03:19:35;;;;;;;6.20;4.20;;;;;;;8.29;77.02;100160.56;5093626;28;20036;-61
2021/11/07 03:22:08;;;;;;;6.22;4.18;;;;;;;8.29;77.26;100168.31;5093450;28;20036;-61
2021/11/07 03:24:36;;;;;;;5.18;4.65;;;;;;;8.30;77.11;100175.22;5093643;28;20085;-61
2021/11/07 03:27:08;;;;;;;5.72;4.85;;;;;;;8.30;77.08;100172.66;5093122;28;20128;-61
2021/11/07 03:29:34;;;;;;;7.57;4.07;;;;;;;8.31;76.98;100169.22;5092244;28;20044;-61
2021/11/07 03:32:08;;;;;;;4.90;3.45;;;;;;;8.30;77.16;100170.91;5092660;28;20024;-61
2021/11/07 03:34:41;;;;;;;5.53;4.93;;;;;;;8.29;77.29;100169.16;5093699;28;20040;-61
2021/11/07 03:37:11;;;;;;;5.07;4.47;;;;;;;8.28;77.55;100158.81;5093725;28;20040;-61
2021/11/07 03:39:38;;;;;;;6.25;5.03;;;;;;;8.30;77.59;100158.00;5092229;28;20056;-61
2021/11/07 03:42:10;;;;;;;5.75;5.15;;;;;;;8.31;77.03;100154.59;5093455;28;20217;-61
2021/11/07 03:47:02;;;;;;;5.57;4.95;;;;;;;8.32;77.42;100142.56;5132203;27;20147;-61
2021/11/07 03:49:27;;;;;;;6.32;5.63;;;;;;;8.30;77.38;100131.31;5132041;28;20036;-61
2021/11/07 03:51:53;;;;;;;7.82;5.15;;;;;;;8.31;77.17;100138.25;5113920;28;20046;-61
2021/11/07 03:54:19;;;;;;;6.20;5.13;;;;;;;8.32;77.41;100137.41;5113820;28;20092;-61
2021/11/07 03:56:45;;;;;;;5.78;4.78;;;;;;;8.31;77.46;100128.78;5113437;28;20062;-61
2021/11/07 03:59:11;;;;;;;5.70;5.10;;;;;;;8.31;77.51;100135.66;5131661;28;20074;-61
2021/11/07 04:01:39;;;;;;;6.03;5.00;;;;;;;8.32;77.51;100130.53;5131662;28;20031;-61
2021/11/07 04:04:05;;;;;;;5.82;5.03;;;;;;;8.33;77.81;100121.09;5113085;28;20388;-61
2021/11/07 04:06:31;;;;;;;7.15;4.65;;;;;;;8.33;77.51;100121.09;5131364;28;20035;-61
2021/11/07 04:08:57;;;;;;;7.05;4.65;;;;;;;8.34;77.55;100133.13;5112964;28;20112;-60
2021/11/07 04:11:22;;;;;;;4.93;4.43;;;;;;;8.34;77.38;100126.28;5131236;28;20127;-61
2021/11/07 04:13:50;;;;;;;5.82;4.80;;;;;;;8.34;77.24;100121.13;5131163;28;20040;-61
2021/11/07 04:16:18;;;;;;;6.40;4.75;;;;;;;8.34;77.84;100115.06;5131601;28;20038;-61
2021/11/07 04:18:45;;;;;;;5.38;4.88;;;;;;;8.35;77.24;100128.03;5131333;28;20046;-61
2021/11/07 04:21:13;;;;;;;6.30;5.22;;;;;;;8.35;77.65;100133.19;5131281;28;20083;-61
2021/11/07 04:23:39;;;;;;;6.43;4.75;;;;;;;8.35;77.46;100121.97;5095781;28;20425;-61
2021/11/07 04:26:05;;;;;;;5.40;4.88;;;;;;;8.35;77.39;100129.72;5131054;28;20023;-63
2021/11/07 04:28:31;;;;;;;5.22;4.43;;;;;;;8.37;77.29;100123.78;5131203;28;20027;-61
2021/11/07 04:30:59;;;;;;;7.85;4.20;;;;;;;8.36;77.60;100132.38;5131522;28;20035;-61
2021/11/07 04:33:26;;;;;;;5.93;4.95;;;;;;;8.36;77.39;100127.19;5112632;28;20059;-61
2021/11/07 04:35:54;;;;;;;5.25;4.55;;;;;;;8.37;77.43;100130.63;5130915;28;20031;-61
2021/11/07 04:38:20;;;;;;;6.35;4.90;;;;;;;8.36;77.37;100126.31;5131049;28;20106;-62
2021/11/07 04:40:46;;;;;;;5.50;4.10;;;;;;;8.36;77.46;100113.38;5112599;28;20501;-62
2021/11/07 04:43:12;;;;;;;4.65;4.20;;;;;;;8.37;77.36;100105.69;5130863;28;20039;-62
2021/11/07 04:45:37;;;;;;;5.20;4.70;;;;;;;8.37;77.33;100115.13;5130587;28;20051;-61
2021/11/07 04:48:08;;;;;;;4.70;4.20;;;;;;;8.36;77.44;100106.53;5112288;28;20063;-61
2021/11/07 04:50:37;;;;;;;5.53;4.68;;;;;;;8.37;77.26;100100.53;5112390;28;20042;-61
2021/11/07 04:53:11;;;;;;;5.57;5.05;;;;;;;8.37;77.75;100095.38;5130595;28;20478;-62
2021/11/07 04:55:38;;;;;;;;;;;;;;;8.38;77.58;100073.88;5112506;28;20042;-61
2021/11/07 04:58:07;;;;;;;5.65;4.60;;;;;;;8.37;77.37;100076.41;5118671;28;19959;-61
2021/11/07 05:00:34;;;;;;;5.55;4.63;;;;;;;8.37;77.41;100072.13;5116733;28;20035;-61
2021/11/07 05:03:03;;;;;;;4.63;4.07;;;;;;;8.37;77.49;100069.53;5116621;28;20032;-61
2021/11/07 05:05:30;;;;;;;4.57;4.18;;;;;;;8.37;77.62;100078.97;5116827;28;20032;-61
2021/11/07 05:07:57;;;;;;;4.85;4.40;;;;;;;8.39;77.40;100074.75;5116579;28;20046;-61
2021/11/07 05:10:23;;;;;;;4.47;4.07;;;;;;;8.38;77.49;100078.16;5116634;28;20040;-61
2021/11/07 05:12:51;;;;;;;4.90;4.25;;;;;;;8.38;77.65;100079.03;5116535;28;20080;-62
2021/11/07 05:15:18;;;;;;;4.82;4.28;;;;;;;8.40;77.64;100094.56;5116728;28;20036;-61
2021/11/07 05:17:44;;;;;;;4.10;3.70;;;;;;;8.40;77.47;100099.72;5116466;28;20111;-61
2021/11/07 05:20:10;;;;;;;5.18;4.13;;;;;;;8.40;77.60;100085.97;5116322;28;20116;-61
2021/11/07 05:22:37;;;;;;;4.82;4.07;;;;;;;8.42;77.61;100085.16;5116112;28;20171;-61
2021/11/07 05:25:04;;;;;;;7.32;4.45;;;;;;;8.41;77.87;100078.25;5098091;28;20047;-61
2021/11/07 05:27:30;;;;;;;4.85;3.92;;;;;;;8.42;77.50;100082.56;5098475;28;20130;-61
2021/11/07 05:30:00;;;;;;;4.97;4.35;;;;;;;8.43;77.90;100078.25;5098615;28;20088;-61
2021/11/07 05:32:30;;;;;;;6.55;3.83;;;;;;;8.43;77.54;100084.31;5098093;28;20031;-61
2021/11/07 05:34:57;;;;;;;6.10;4.55;;;;;;;8.42;77.72;100085.16;5098215;28;20448;-62
2021/11/07 05:37:22;;;;;;;4.05;3.65;;;;;;;8.43;77.50;100107.56;5116088;28;20028;-61
2021/11/07 05:39:48;;;;;;;4.32;3.92;;;;;;;8.43;77.77;100102.41;5131970;27;20089;-61
2021/11/07 05:42:14;;;;;;;4.55;3.60;;;;;;;8.43;77.47;100079.16;5116125;28;20024;-61
2021/11/07 05:44:40;;;;;;;5.18;3.92;;;;;;;8.43;77.77;100060.19;5115821;28;20123;-61
2021/11/07 05:47:06;;;;;;;4.88;3.78;;;;;;;8.44;77.91;100042.16;5097881;28;20498;-61
2021/11/07 05:49:31;;;;;;;4.53;4.13;;;;;;;8.46;77.81;100039.59;5097991;28;20368;-61
2021/11/07 05:51:57;;;;;;;4.40;3.92;;;;;;;8.46;77.67;100030.16;5097441;28;20036;-62
2021/11/07 05:54:22;;;;;;;6.25;3.67;;;;;;;8.47;77.83;100025.84;5115770;28;20089;-61
2021/11/07 05:56:50;;;;;;;4.25;3.85;;;;;;;8.48;77.94;100038.84;5115951;28;20046;-61
2021/11/07 05:59:16;;;;;;;4.30;3.90;;;;;;;8.49;78.07;100060.38;5115724;28;20090;-61
2021/11/07 06:01:41;;;;;;;4.18;3.78;;;;;;;8.50;77.96;100056.97;5097432;28;20510;-61
2021/11/07 06:04:07;;;;;;;4.95;4.47;;;;;;;8.48;78.10;100051.78;5096967;28;20031;-61
2021/11/07 06:06:33;;;;;;;5.07;4.53;;;;;;;8.50;77.89;100050.06;5115195;28;20032;-61
2021/11/07 06:09:00;;;;;;;4.10;3.70;;;;;;;8.50;77.70;100042.31;5079400;28;20406;-61
2021/11/07 06:11:26;;;;;;;4.28;3.88;;;;;;;8.50;77.83;100044.06;5097311;28;20031;-61
2021/11/07 06:13:51;;;;;;;4.88;3.90;;;;;;;8.49;78.20;100044.88;5115450;28;20118;-61
2021/11/07 06:16:17;;;;;;;4.93;4.43;;;;;;;8.50;77.83;100047.50;5115011;28;20032;-61
2021/11/07 06:18:43;;;;;;;4.85;4.15;;;;;;;8.51;78.12;100063.88;5097180;28;20054;-63
2021/11/07 06:21:10;;;;;;;5.25;4.72;;;;;;;8.52;78.01;100078.53;5079814;28;20081;-61
2021/11/07 06:23:36;;;;;;;4.85;4.30;;;;;;;8.52;78.11;100083.72;5115189;28;20509;-61
2021/11/07 06:26:03;;;;;;;5.63;4.22;;;;;;;8.52;77.77;100081.13;5097086;28;20028;-61
2021/11/07 06:28:29;;;;;;;4.93;4.13;;;;;;;8.52;77.80;100096.63;5115150;28;20043;-61
2021/11/07 06:30:55;;;;;;;4.97;3.83;;;;;;;8.52;78.11;100094.03;5097392;28;20036;-61
2021/11/07 06:33:21;;;;;;;4.78;4.28;;;;;;;8.51;78.05;100093.16;5079920;28;20130;-62
2021/11/07 06:35:47;;;;;;;5.07;4.45;;;;;;;8.52;77.88;100084.56;5096562;28;20221;-62
2021/11/07 06:38:13;;;;;;;5.85;4.30;;;;;;;8.51;78.03;100076.78;5080459;28;20040;-62
2021/11/07 06:40:40;;;;;;;5.07;4.57;;;;;;;8.51;78.39;100085.41;5079880;28;20051;-62
2021/11/07 06:43:07;;;;;;;5.50;4.82;;;;;;;8.50;78.25;100078.50;5114865;28;20036;-61
2021/11/07 06:45:34;;;;;;;4.45;4.03;;;;;;;8.52;78.09;100078.53;5092743;28;20478;-61
2021/11/07 06:48:00;;;;;;;5.07;4.53;;;;;;;8.51;78.01;100080.25;5094402;28;20028;-62
2021/11/07 06:50:26;;;;;;;8.00;4.07;;;;;;;8.52;78.01;100084.56;5093433;28;20036;-62
2021/11/07 06:52:52;;;;;;;4.65;4.00;;;;;;;8.54;78.19;100082.03;5094316;28;20150;-62
2021/11/07 06:55:17;;;;;;;7.25;4.60;;;;;;;8.52;78.18;100079.41;5094142;28;20072;-62
2021/11/07 06:57:44;;;;;;;5.45;4.60;;;;;;;8.55;78.09;100083.78;5094124;28;20372;-62
2021/11/07 07:00:13;;;;;;;5.75;4.68;;;;;;;8.55;78.17;100082.91;5094112;28;20078;-61
2021/11/07 07:02:39;;;;;;;5.30;4.63;;;;;;;8.55;78.24;100086.38;5093033;28;20032;-62
2021/11/07 07:05:09;;;;;;;4.75;4.15;;;;;;;8.56;78.21;100082.06;5093473;28;20032;-61
2021/11/07 07:07:37;;;;;;;5.47;4.32;;;;;;;8.56;78.31;100064.88;5092830;28;20060;-61
2021/11/07 07:10:07;;;;;;;6.22;4.70;;;;;;;8.57;78.29;100070.91;5093944;28;20123;-61
2021/11/07 07:12:42;;;;;;;6.43;4.75;;;;;;;8.57;78.40;100074.34;5093001;28;20126;-61
2021/11/07 07:15:17;;;;;;;6.75;5.18;;;;;;;8.58;78.36;100068.34;5094113;28;20032;-61
2021/11/07 07:20:44;;;;;;;5.80;4.95;;;;;;;8.60;78.19;100078.72;5094104;28;20122;-62
2021/11/07 07:30:51;;;;;;;7.30;4.97;;;;;;;8.61;78.36;100085.66;5093800;28;20502;-61
2021/11/07 07:35:50;;;;;;;5.45;4.78;;;;;;;8.60;78.68;100082.19;5093352;28;20464;-61
2021/11/07 07:38:15;;;;;;;5.32;4.20;;;;;;;8.60;78.32;100094.25;5093461;28;20127;-61
2021/11/07 07:40:42;;;;;;;7.65;5.28;;;;;;;8.59;78.44;100102.81;5093511;28;20127;-61
2021/11/07 07:43:09;;;;;;;5.78;5.18;;;;;;;8.61;78.84;100108.91;5126781;28;20126;-61
2021/11/07 07:45:37;;;;;;;6.53;4.30;;;;;;;8.60;78.48;100089.06;5102193;28;20044;-61
2021/11/07 07:48:04;;;;;;;6.20;5.03;;;;;;;8.61;78.43;100070.16;5129989;28;20078;-62
2021/11/07 07:50:31;;;;;;;6.95;4.60;;;;;;;8.62;78.37;100069.31;5113900;28;20031;-62
2021/11/07 07:52:56;;;;;;;7.00;5.35;;;;;;;8.61;78.16;100075.31;5095733;28;20081;-61
2021/11/07 07:55:23;;;;;;;7.00;5.65;;;;;;;8.61;78.57;100072.75;5095426;28;20036;-62
2021/11/07 07:57:49;;;;;;;9.45;7.25;;;;;;;8.61;78.58;100076.19;5113825;28;20042;-62
2021/11/07 08:00:17;;;;;;;9.85;5.88;;;;;;;8.63;78.74;100076.22;5113387;28;20084;-62
2021/11/07 08:02:43;;;;;;;7.30;6.60;;;;;;;8.64;78.94;100085.72;5095517;28;20043;-62
2021/11/07 08:05:13;;;;;;;11.15;7.43;;;;;;;8.64;78.78;100099.50;5113801;28;20047;-62
2021/11/07 08:07:42;;;;;;;8.75;6.32;;;;;;;8.65;78.71;100093.50;5113840;28;20028;-62
2021/11/07 08:10:08;;;;;;;8.27;6.28;;;;;;;8.64;78.57;100073.69;5112068;28;20047;-62
2021/11/07 08:12:34;;;;;;;8.45;6.40;;;;;;;8.66;78.93;100078.88;5114290;28;20024;-62
2021/11/07 08:15:00;;;;;;;10.45;7.07;;;;;;;8.66;78.91;100076.28;5078579;28;20394;-62
2021/11/07 08:17:27;;;;;;;9.55;7.18;;;;;;;8.66;78.84;100084.03;5078789;28;20043;-62
2021/11/07 08:19:54;;;;;;;9.32;7.03;;;;;;;8.66;78.77;100091.78;5113167;28;20032;-62
2021/11/07 08:22:19;;;;;;;7.93;6.40;;;;;;;8.66;78.63;100090.09;5113339;28;20092;-61
2021/11/07 08:24:45;;;;;;;10.80;7.18;;;;;;;8.68;78.66;100084.94;5095697;28;20035;-61
2021/11/07 08:27:11;;;;;;;8.52;7.38;;;;;;;8.67;78.59;100089.25;5113483;28;20525;-62
2021/11/07 08:29:37;;;;;;;8.13;6.32;;;;;;;8.67;78.74;100089.25;5113268;28;20464;-61
2021/11/07 08:32:03;;;;;;;12.25;6.88;;;;;;;8.67;78.63;100075.44;5096435;28;20035;-62
2021/11/07 08:34:31;;;;;;;8.02;6.43;;;;;;;8.66;78.66;100077.19;5117323;28;20474;-61
2021/11/07 08:37:06;;;;;;;9.77;7.50;;;;;;;8.68;78.72;100092.69;5117306;28;20031;-62
2021/11/07 08:42:03;;;;;;;11.93;7.60;;;;;;;8.68;78.71;100091.00;5098957;28;20035;-61
2021/11/07 09:01:09;;;;;;;12.15;7.85;;;;;;;8.67;78.64;100112.50;5117001;28;20032;-61
2021/11/07 09:03:53;;;;;;;13.40;8.30;;;;;;;8.69;78.75;100091.88;5116846;28;20035;-61
2021/11/07 09:08:48;;;;;;;11.43;8.43;;;;;;;8.70;78.81;100098.78;5117017;28;20039;-61
2021/11/07 09:11:18;;;;;;;13.70;8.20;;;;;;;8.71;78.79;100108.28;5116678;28;20036;-61
2021/11/07 09:13:44;;;;;;;11.23;8.85;;;;;;;8.72;78.63;100099.69;5081481;28;20032;-61
2021/11/07 09:16:12;;;;;;;13.95;9.32;;;;;;;8.72;78.94;100099.69;5098135;28;20070;-61
2021/11/07 09:18:38;;;;;;;10.73;8.45;;;;;;;8.72;78.97;100088.50;5116294;28;20075;-61
2021/11/07 09:21:15;;;;;;;12.18;9.15;;;;;;;8.73;78.86;100085.06;5098011;28;20032;-61
2021/11/07 09:24:00;;;;;;;10.05;8.50;;;;;;;8.72;78.70;100089.38;5116140;28;20039;-61
2021/11/07 09:26:37;;;;;;;13.75;8.93;;;;;;;8.73;78.76;100106.63;5116546;28;20149;-62
2021/11/07 09:29:07;;;;;;;11.07;8.27;;;;;;;8.74;79.13;100094.56;5116261;28;20047;-62
2021/11/07 09:32:03;;;;;;;13.68;8.85;;;;;;;8.74;78.92;100097.13;5116055;28;20042;-61
2021/11/07 09:34:41;;;;;;;12.02;8.43;;;;;;;8.75;79.26;100098.88;5116439;28;20035;-62
2021/11/07 09:37:15;;;;;;;12.68;8.77;;;;;;;8.73;78.72;100101.44;5115870;28;20089;-62
2021/11/07 09:39:54;;;;;;;10.50;8.48;;;;;;;8.75;79.11;100106.63;5097676;28;20043;-62
2021/11/07 09:44:49;;;;;;;15.63;9.73;;;;;;;8.77;79.11;100123.94;5115537;28;20071;-62
2021/11/07 09:47:15;;;;;;;18.48;9.77;;;;;;;8.78;78.77;100111.88;5116261;28;20032;-62
2021/11/07 09:49:46;;;;;;;17.80;8.73;;;;;;;8.78;78.79;100114.47;5116295;28;20046;-62
2021/11/07 09:52:19;;;;;;;11.95;8.30;;;;;;;8.78;78.96;100107.63;5097747;28;20028;-62
2021/11/07 09:54:49;;;;;;;13.02;9.02;;;;;;;8.78;78.90;100099.84;5115907;28;20118;-61
2021/11/07 09:57:25;;;;;;;13.98;9.27;;;;;;;8.79;79.10;100108.47;5097818;28;20058;-61
2021/11/07 09:59:53;;;;;;;13.60;8.75;;;;;;;8.79;78.89;100109.38;5097088;28;20032;-62
2021/11/07 10:02:19;;;;;;;13.05;8.63;;;;;;;8.78;78.86;100105.03;5115651;28;20398;-61
2021/11/07 10:04:47;;;;;;;13.35;9.05;;;;;;;8.78;79.01;100119.66;5097181;28;20035;-62
2021/11/07 10:07:17;;;;;;;14.57;8.70;;;;;;;8.78;78.90;100112.78;5115840;28;20514;-61
2021/11/07 10:09:44;;;;;;;18.30;8.93;;;;;;;8.79;78.48;100132.63;5080769;28;20399;-61
2021/11/07 10:12:23;;;;;;;14.77;8.52;;;;;;;8.78;78.92;100125.69;5097361;28;20040;-62
2021/11/07 10:14:57;;;;;;;13.73;7.90;;;;;;;8.78;79.03;100136.03;5115646;28;20603;-61
2021/11/07 10:17:34;;;;;;;16.10;7.63;;;;;;;8.79;79.00;100137.78;5115171;28;20028;-61
2021/11/07 10:20:21;;;;;;;15.52;7.97;;;;;;;8.80;78.97;100142.09;5115209;28;20524;-61
2021/11/07 10:22:53;;;;;;;14.48;7.13;;;;;;;8.80;78.92;100129.16;5115609;28;20063;-62
2021/11/07 10:25:28;;;;;;;21.02;7.43;;;;;;;8.81;78.87;100127.47;5115066;28;20043;-62
2021/11/07 10:27:56;;;;;;;11.60;6.13;;;;;;;8.80;78.68;100129.16;5115146;28;20367;-62
2021/11/07 10:30:27;;;;;;;12.60;6.53;;;;;;;8.80;78.91;100129.16;5115101;28;20048;-62
2021/11/07 10:33:17;;;;;;;15.88;7.15;;;;;;;8.79;78.68;100130.03;5115143;28;20031;-61
2021/11/07 10:36:08;;;;;;;22.45;6.97;;;;;;;8.79;78.90;100124.88;5115503;28;20482;-62
2021/11/07 10:39:05;;;;;;;12.00;5.55;;;;;;;8.79;78.70;100117.13;5114690;28;20027;-62
2021/11/07 10:52:24;;;;;;;19.95;5.35;;;;;;;8.79;78.73;100129.16;5114781;28;20031;-61
2021/11/07 10:54:50;;;;;;;21.60;5.32;;;;;;;8.80;78.83;100128.31;5095980;28;20546;-62
2021/11/07 10:57:22;;;;;;;14.07;5.30;;;;;;;8.80;78.50;100111.09;5130493;27;20474;-62
2021/11/07 11:00:06;;;;;;;16.27;5.57;;;;;;;8.80;78.58;100111.09;5114539;28;20062;-62
2021/11/07 11:02:37;;;;;;;14.68;4.50;;;;;;;8.80;78.74;100116.25;5096691;28;20080;-62
2021/11/07 11:05:12;;;;;;;21.08;5.22;;;;;;;8.80;78.58;100124.00;5114393;28;20043;-62
2021/11/07 11:07:57;;;;;;;15.68;4.45;;;;;;;8.81;78.66;100109.38;5113973;28;20031;-61
2021/11/07 11:10:32;;;;;;;14.77;4.78;;;;;;;8.80;78.58;100117.97;5096568;28;20057;-62
2021/11/07 11:24:25;;;;;;;17.80;4.47;;;;;;;8.81;78.50;100114.56;5095749;28;20035;-62
2021/11/07 11:34:20;;;;;;;10.20;4.13;;;;;;;8.82;78.32;100129.22;5114196;28;20367;-62
2021/11/07 11:36:52;;;;;;;16.05;4.50;;;;;;;8.84;78.30;100118.06;5113503;28;20031;-62
2021/11/07 11:39:27;;;;;;;16.42;4.38;;;;;;;8.84;78.42;100122.38;5114251;28;20510;-62
2021/11/07 11:42:05;;;;;;;10.93;4.30;;;;;;;8.84;78.53;100125.84;5113926;28;20024;-62
2021/11/07 11:44:31;;;;;;;13.95;4.70;;;;;;;8.86;78.10;100127.59;5113942;28;20092;-61
2021/11/07 11:47:37;;;;;;;18.50;5.25;;;;;;;8.86;78.25;100119.81;5113158;28;20519;-62
2021/11/07 11:52:51;;;;;;;19.88;5.40;;;;;;;8.87;77.85;100124.16;5113985;28;20035;-61
2021/11/07 11:55:48;;;;;;;13.75;5.20;;;;;;;8.89;78.28;100120.78;5113437;28;20077;-62
2021/11/07 11:58:25;;;;;;;15.05;4.65;;;;;;;8.89;78.36;100107.84;5095802;28;20054;-62
2021/11/07 12:01:02;;;;;;;22.67;5.18;;;;;;;8.92;78.21;100112.25;5113944;28;20039;-62
2021/11/07 12:06:49;;;;;;;16.25;4.72;;;;;;;8.92;78.15;100107.06;5113463;28;20482;-62
2021/11/07 12:15:02;;;;;;;16.33;3.60;;;;;;;8.93;77.90;100112.25;5087909;28;20044;-61
2021/11/07 12:17:31;;;;;;;19.02;5.10;;;;;;;8.94;77.92;100102.81;5099671;28;20047;-61
2021/11/07 12:19:57;;;;;;;15.60;4.28;;;;;;;8.94;77.71;100105.41;5117541;28;20046;-61
2021/11/07 12:22:33;;;;;;;13.48;4.20;;;;;;;8.94;77.76;100107.97;5117602;28;20031;-61
2021/11/07 12:25:07;;;;;;;14.07;4.18;;;;;;;8.93;78.08;100101.91;5117467;28;20031;-61
2021/11/07 12:27:54;;;;;;;22.42;4.78;;;;;;;8.94;78.10;100097.66;5082354;28;20502;-61
2021/11/07 12:30:29;;;;;;;12.82;4.40;;;;;;;8.93;77.91;100093.31;5099652;28;20032;-61
2021/11/07 12:33:04;;;;;;;18.10;4.60;;;;;;;8.91;77.88;100088.09;5117444;28;20074;-62
2021/11/07 12:35:42;;;;;;;14.63;5.03;;;;;;;8.92;78.10;100083.81;5116849;28;20406;-62
2021/11/07 12:41:23;;;;;;;11.90;4.13;;;;;;;8.94;78.04;100069.22;5099377;28;20070;-62
2021/11/07 12:44:00;;;;;;;22.77;4.53;;;;;;;8.93;78.03;100078.66;5117289;28;20050;-62
2021/11/07 12:49:15;;;;;;;12.95;3.70;;;;;;;8.94;77.88;100085.56;5117314;28;20093;-62
2021/11/07 12:51:46;;;;;;;17.58;4.18;;;;;;;8.94;78.00;100084.72;5106054;28;20126;-62
2021/11/07 12:54:24;;;;;;;12.25;3.38;;;;;;;8.94;77.88;100092.47;5117042;28;20042;-61
2021/11/07 12:57:08;;;;;;;14.15;4.10;;;;;;;8.96;77.88;100083.00;5116658;28;20122;-61
2021/11/07 12:59:45;;;;;;;11.68;4.22;;;;;;;8.95;77.73;100076.13;5098463;28;20047;-62
2021/11/07 13:02:29;;;;;;;24.92;6.28;;;;;;;8.97;77.69;100074.41;5116658;28;20039;-61
2021/11/07 13:05:22;;;;;;;14.73;3.53;;;;;;;8.96;77.59;100085.59;5081648;28;20504;-62
2021/11/07 13:08:03;;;;;;;16.55;3.97;;;;;;;8.95;77.26;100087.31;5108857;28;20046;-62
2021/11/07 13:18:58;;;;;;;17.42;4.22;;;;;;;8.91;77.51;100094.97;5116211;28;20039;-62
2021/11/07 13:26:58;;;;;;;17.90;5.07;;;;;;;8.89;77.48;100094.91;5116536;28;20038;-62
2021/11/07 13:31:47;;;;;;;12.00;3.95;;;;;;;8.88;77.50;100098.34;5116230;28;20043;-61
2021/11/07 13:34:18;;;;;;;14.73;3.85;;;;;;;8.89;77.32;100102.69;5116291;28;20035;-61
2021/11/07 13:36:46;;;;;;;18.90;4.45;;;;;;;8.88;77.15;100093.16;5116363;28;20036;-62
2021/11/07 13:39:19;;;;;;;20.10;4.82;;;;;;;8.90;77.32;100093.22;5116063;28;20047;-62
2021/11/07 13:41:59;;;;;;;17.13;5.15;;;;;;;8.91;77.54;100084.63;5116326;28;20054;-61
2021/11/07 13:44:27;;;;;;;18.88;5.05;;;;;;;8.90;77.54;100088.91;5097895;28;20489;-62
2021/11/07 13:46:55;;;;;;;14.48;4.03;;;;;;;8.92;77.51;100088.97;5097473;28;20491;-62
2021/11/07 13:49:21;;;;;;;13.48;4.07;;;;;;;8.92;77.21;100096.72;5115599;28;20084;-62
2021/11/07 13:52:05;;;;;;;13.27;3.83;;;;;;;8.91;77.38;100101.00;5116111;28;20493;-62
2021/11/07 13:54:38;;;;;;;12.07;4.45;;;;;;;8.93;77.52;100098.47;5115474;28;20395;-62
2021/11/07 13:57:04;;;;;;;19.50;4.88;;;;;;;8.93;77.42;100090.72;5115786;28;20390;-62
2021/11/07 13:59:34;;;;;;;17.40;5.93;;;;;;;8.95;77.07;100083.88;5097531;28;20047;-62
2021/11/07 14:02:01;;;;;;;12.45;4.28;;;;;;;8.94;77.32;100082.13;5115712;28;20035;-61